sensor_id;sensor_type;location;lat;lon;timestamp;pressure;altitude;pressure_sealevel;temperature;humidity
73633;BME280;61927;50.080;14.418;2023-06-04T00:00:29;99769.88;;;14.59;40.48
73633;BME280;61927;50.080;14.418;2023-06-04T00:03:15;99766.25;;;14.60;40.56
73633;BME280;61927;50.080;14.418;2023-06-04T00:05:41;99767.22;;;14.59;40.83
73633;BME280;61927;50.080;14.418;2023-06-04T00:08:06;99763.06;;;14.55;40.63
73633;BME280;61927;50.080;14.418;2023-06-04T00:10:32;99760.50;;;14.53;40.55
73633;BME280;61927;50.080;14.418;2023-06-04T00:12:59;99764.13;;;14.52;40.89
73633;BME280;61927;50.080;14.418;2023-06-04T00:15:25;99764.69;;;14.45;40.93
73633;BME280;61927;50.080;14.418;2023-06-04T00:17:51;99761.16;;;14.44;40.97
73633;BME280;61927;50.080;14.418;2023-06-04T00:20:17;99756.91;;;14.42;41.14
73633;BME280;61927;50.080;14.418;2023-06-04T00:22:42;99752.09;;;14.34;41.43
73633;BME280;61927;50.080;14.418;2023-06-04T00:25:09;99753.16;;;14.32;41.33
73633;BME280;61927;50.080;14.418;2023-06-04T00:27:35;99745.38;;;14.29;41.40
73633;BME280;61927;50.080;14.418;2023-06-04T00:30:01;99749.97;;;14.27;41.43
73633;BME280;61927;50.080;14.418;2023-06-04T00:32:26;99745.09;;;14.20;41.09
73633;BME280;61927;50.080;14.418;2023-06-04T00:34:53;99746.25;;;14.16;41.63
73633;BME280;61927;50.080;14.418;2023-06-04T00:37:19;99748.19;;;14.14;42.09
73633;BME280;61927;50.080;14.418;2023-06-04T00:39:45;99745.00;;;14.09;41.96
73633;BME280;61927;50.080;14.418;2023-06-04T00:42:11;99745.22;;;14.06;42.56
73633;BME280;61927;50.080;14.418;2023-06-04T00:44:36;99737.44;;;14.03;42.20
73633;BME280;61927;50.080;14.418;2023-06-04T00:47:02;99737.66;;;14.00;42.21
73633;BME280;61927;50.080;14.418;2023-06-04T00:49:28;99740.44;;;13.99;42.11
73633;BME280;61927;50.080;14.418;2023-06-04T00:51:54;99740.22;;;14.02;42.48
73633;BME280;61927;50.080;14.418;2023-06-04T00:54:20;99740.44;;;13.99;42.29
73633;BME280;61927;50.080;14.418;2023-06-04T00:56:47;99741.72;;;13.93;42.35
73633;BME280;61927;50.080;14.418;2023-06-04T00:59:13;99743.53;;;13.93;42.73
73633;BME280;61927;50.080;14.418;2023-06-04T01:01:56;99741.72;;;13.93;42.57
73633;BME280;61927;50.080;14.418;2023-06-04T01:04:30;99746.19;;;13.93;42.75
73633;BME280;61927;50.080;14.418;2023-06-04T01:07:00;99743.00;;;13.87;42.60
73633;BME280;61927;50.080;14.418;2023-06-04T01:09:29;99745.78;;;13.86;42.64
73633;BME280;61927;50.080;14.418;2023-06-04T01:11:55;99741.41;;;13.85;42.52
73633;BME280;61927;50.080;14.418;2023-06-04T01:14:24;99738.00;;;13.83;43.03
73633;BME280;61927;50.080;14.418;2023-06-04T01:17:07;99735.31;;;13.83;42.97
73633;BME280;61927;50.080;14.418;2023-06-04T01:25:22;99734.06;;;13.76;43.45
73633;BME280;61927;50.080;14.418;2023-06-04T01:27:55;99730.13;;;13.69;43.26
73633;BME280;61927;50.080;14.418;2023-06-04T01:30:41;99739.94;;;13.68;43.46
73633;BME280;61927;50.080;14.418;2023-06-04T01:33:12;99728.50;;;13.66;43.83
73633;BME280;61927;50.080;14.418;2023-06-04T01:35:39;99739.41;;;13.63;43.81
73633;BME280;61927;50.080;14.418;2023-06-04T01:38:05;99729.47;;;13.52;44.37
73633;BME280;61927;50.080;14.418;2023-06-04T01:40:31;99728.41;;;13.42;44.54
73633;BME280;61927;50.080;14.418;2023-06-04T01:42:57;99724.47;;;13.35;44.71
73633;BME280;61927;50.080;14.418;2023-06-04T01:45:24;99720.84;;;13.36;44.77
73633;BME280;61927;50.080;14.418;2023-06-04T01:47:51;99715.50;;;13.36;45.01
73633;BME280;61927;50.080;14.418;2023-06-04T01:50:17;99722.53;;;13.37;44.72
73633;BME280;61927;50.080;14.418;2023-06-04T01:52:42;99720.41;;;13.42;44.64
73633;BME280;61927;50.080;14.418;2023-06-04T01:55:10;99728.19;;;13.45;44.82
73633;BME280;61927;50.080;14.418;2023-06-04T01:57:37;99720.94;;;13.47;44.71
73633;BME280;61927;50.080;14.418;2023-06-04T02:00:05;99720.94;;;13.47;44.84
73633;BME280;61927;50.080;14.418;2023-06-04T02:02:36;99720.84;;;13.36;45.36
73633;BME280;61927;50.080;14.418;2023-06-04T02:05:04;99723.06;;;13.30;45.63
73633;BME280;61927;50.080;14.418;2023-06-04T02:07:39;99719.75;;;13.26;45.39
73633;BME280;61927;50.080;14.418;2023-06-04T02:10:10;99722.47;;;13.12;45.65
73633;BME280;61927;50.080;14.418;2023-06-04T02:12:37;99719.59;;;13.02;46.02
73633;BME280;61927;50.080;14.418;2023-06-04T02:15:04;99722.00;;;12.92;46.33
73633;BME280;61927;50.080;14.418;2023-06-04T02:17:30;99722.97;;;12.91;46.45
73633;BME280;61927;50.080;14.418;2023-06-04T02:19:58;99727.66;;;12.88;46.47
73633;BME280;61927;50.080;14.418;2023-06-04T02:22:24;99719.72;;;12.74;46.99
73633;BME280;61927;50.080;14.418;2023-06-04T02:24:51;99726.50;;;12.65;46.91
73633;BME280;61927;50.080;14.418;2023-06-04T02:27:16;99730.84;;;12.53;46.85
73633;BME280;61927;50.080;14.418;2023-06-04T02:29:42;99741.13;;;12.45;47.23
73633;BME280;61927;50.080;14.418;2023-06-04T02:32:09;99736.69;;;12.32;47.46
73633;BME280;61927;50.080;14.418;2023-06-04T02:34:35;99740.59;;;12.26;47.36
73633;BME280;61927;50.080;14.418;2023-06-04T02:37:00;99733.78;;;12.22;47.24
73633;BME280;61927;50.080;14.418;2023-06-04T02:39:26;99750.03;;;12.17;47.35
73633;BME280;61927;50.080;14.418;2023-06-04T02:41:52;99739.47;;;12.16;47.54
73633;BME280;61927;50.080;14.418;2023-06-04T02:44:18;99743.38;;;12.10;47.47
73633;BME280;61927;50.080;14.418;2023-06-04T02:46:44;99740.06;;;12.07;47.76
73633;BME280;61927;50.080;14.418;2023-06-04T02:49:10;99738.06;;;12.10;47.66
73633;BME280;61927;50.080;14.418;2023-06-04T02:51:45;99740.25;;;12.18;47.63
73633;BME280;61927;50.080;14.418;2023-06-04T02:54:12;99738.13;;;12.23;47.28
73633;BME280;61927;50.080;14.418;2023-06-04T02:56:37;99745.81;;;12.27;47.04
73633;BME280;61927;50.080;14.418;2023-06-04T02:59:04;99747.44;;;12.30;47.00
73633;BME280;61927;50.080;14.418;2023-06-04T03:01:30;99751.59;;;12.34;47.03
73633;BME280;61927;50.080;14.418;2023-06-04T03:03:56;99756.84;;;12.36;46.92
73633;BME280;61927;50.080;14.418;2023-06-04T03:06:22;99751.31;;;12.39;46.94
73633;BME280;61927;50.080;14.418;2023-06-04T03:08:50;99756.94;;;12.34;47.15
73633;BME280;61927;50.080;14.418;2023-06-04T03:11:19;99765.31;;;12.28;47.49
73633;BME280;61927;50.080;14.418;2023-06-04T03:13:46;99767.88;;;12.29;51.88
73633;BME280;61927;50.080;14.418;2023-06-04T03:16:12;99770.81;;;12.25;52.23
73633;BME280;61927;50.080;14.418;2023-06-04T03:18:42;99768.66;;;12.17;52.18
73633;BME280;61927;50.080;14.418;2023-06-04T03:21:09;99780.81;;;12.07;53.11
73633;BME280;61927;50.080;14.418;2023-06-04T03:23:37;99771.03;;;11.93;53.50
73633;BME280;61927;50.080;14.418;2023-06-04T03:26:03;99776.66;;;11.89;51.75
73633;BME280;61927;50.080;14.418;2023-06-04T03:28:29;99780.63;;;11.82;50.28
73633;BME280;61927;50.080;14.418;2023-06-04T03:30:55;99782.25;;;11.84;51.46
73633;BME280;61927;50.080;14.418;2023-06-04T03:33:21;99779.41;;;11.87;51.18
73633;BME280;61927;50.080;14.418;2023-06-04T03:35:46;99791.66;;;11.90;49.37
73633;BME280;61927;50.080;14.418;2023-06-04T03:38:14;99789.09;;;11.88;49.91
73633;BME280;61927;50.080;14.418;2023-06-04T03:40:40;99790.72;;;11.91;49.92
73633;BME280;61927;50.080;14.418;2023-06-04T03:43:06;99791.38;;;11.94;49.48
73633;BME280;61927;50.080;14.418;2023-06-04T03:45:31;99796.78;;;11.93;49.28
73633;BME280;61927;50.080;14.418;2023-06-04T03:47:57;99796.03;;;11.91;49.11
73633;BME280;61927;50.080;14.418;2023-06-04T03:50:22;99799.06;;;11.85;48.55
73633;BME280;61927;50.080;14.418;2023-06-04T03:52:48;99788.28;;;11.72;48.69
73633;BME280;61927;50.080;14.418;2023-06-04T03:55:14;99801.06;;;11.51;48.34
73633;BME280;61927;50.080;14.418;2023-06-04T03:57:40;99801.34;;;11.47;48.80
73633;BME280;61927;50.080;14.418;2023-06-04T04:00:07;99799.44;;;11.35;48.86
73633;BME280;61927;50.080;14.418;2023-06-04T04:02:36;99795.25;;;11.30;48.98
73633;BME280;61927;50.080;14.418;2023-06-04T04:05:01;99797.25;;;11.41;48.96
73633;BME280;61927;50.080;14.418;2023-06-04T04:07:28;99803.34;;;11.43;48.68
73633;BME280;61927;50.080;14.418;2023-06-04T04:09:53;99796.59;;;11.38;48.85
73633;BME280;61927;50.080;14.418;2023-06-04T04:12:19;99799.25;;;11.38;48.50
73633;BME280;61927;50.080;14.418;2023-06-04T04:14:45;99800.50;;;11.46;48.72
73633;BME280;61927;50.080;14.418;2023-06-04T04:17:15;99798.97;;;11.42;48.57
73633;BME280;61927;50.080;14.418;2023-06-04T04:19:41;99793.94;;;11.38;48.50
73633;BME280;61927;50.080;14.418;2023-06-04T04:22:06;99797.44;;;11.38;48.53
73633;BME280;61927;50.080;14.418;2023-06-04T04:24:34;99801.81;;;11.39;48.63
73633;BME280;61927;50.080;14.418;2023-06-04T04:27:03;99803.88;;;11.34;48.22
73633;BME280;61927;50.080;14.418;2023-06-04T04:29:29;99810.31;;;11.30;48.09
73633;BME280;61927;50.080;14.418;2023-06-04T04:31:59;99807.56;;;11.31;48.06
73633;BME280;61927;50.080;14.418;2023-06-04T04:34:38;99794.66;;;11.25;48.30
73633;BME280;61927;50.080;14.418;2023-06-04T04:37:08;99797.81;;;11.32;48.40
73633;BME280;61927;50.080;14.418;2023-06-04T04:39:35;99798.88;;;11.44;47.80
73633;BME280;61927;50.080;14.418;2023-06-04T04:42:04;99801.94;;;11.52;47.85
73633;BME280;61927;50.080;14.418;2023-06-04T04:44:29;99805.72;;;11.48;47.92
73633;BME280;61927;50.080;14.418;2023-06-04T04:46:55;99801.84;;;11.53;47.71
73633;BME280;61927;50.080;14.418;2023-06-04T04:49:20;99798.72;;;11.61;47.57
73633;BME280;61927;50.080;14.418;2023-06-04T04:51:46;99800.16;;;11.67;47.67
73633;BME280;61927;50.080;14.418;2023-06-04T04:54:12;99803.19;;;11.75;47.53
73633;BME280;61927;50.080;14.418;2023-06-04T04:56:37;99797.44;;;11.82;47.40
73633;BME280;61927;50.080;14.418;2023-06-04T04:59:03;99802.28;;;11.90;46.45
73633;BME280;61927;50.080;14.418;2023-06-04T05:01:28;99801.16;;;11.94;46.69
73633;BME280;61927;50.080;14.418;2023-06-04T05:03:54;99801.25;;;12.07;46.98
73633;BME280;61927;50.080;14.418;2023-06-04T05:06:20;99799.53;;;12.20;46.50
73633;BME280;61927;50.080;14.418;2023-06-04T05:08:47;99811.03;;;12.20;46.18
73633;BME280;61927;50.080;14.418;2023-06-04T05:11:13;99814.75;;;12.04;46.44
73633;BME280;61927;50.080;14.418;2023-06-04T05:13:38;99809.13;;;11.94;46.99
73633;BME280;61927;50.080;14.418;2023-06-04T05:16:04;99814.63;;;11.91;47.17
73633;BME280;61927;50.080;14.418;2023-06-04T05:18:37;99814.34;;;11.95;47.00
73633;BME280;61927;50.080;14.418;2023-06-04T05:21:07;99822.44;;;11.94;47.23
73633;BME280;61927;50.080;14.418;2023-06-04T05:23:33;99819.19;;;11.89;47.54
73633;BME280;61927;50.080;14.418;2023-06-04T05:26:03;99816.81;;;11.99;47.77
73633;BME280;61927;50.080;14.418;2023-06-04T05:28:30;99819.09;;;12.05;47.72
73633;BME280;61927;50.080;14.418;2023-06-04T05:30:58;99824.81;;;12.13;47.07
73633;BME280;61927;50.080;14.418;2023-06-04T05:33:28;99819.56;;;12.25;46.99
73633;BME280;61927;50.080;14.418;2023-06-04T05:35:56;99812.91;;;12.33;46.06
73633;BME280;61927;50.080;14.418;2023-06-04T05:38:23;99819.97;;;12.19;46.47
73633;BME280;61927;50.080;14.418;2023-06-04T05:40:53;99822.63;;;12.19;46.27
73633;BME280;61927;50.080;14.418;2023-06-04T05:43:18;99824.72;;;12.14;46.19
73633;BME280;61927;50.080;14.418;2023-06-04T05:45:44;99829.66;;;12.06;47.05
73633;BME280;61927;50.080;14.418;2023-06-04T05:48:10;99828.13;;;12.16;46.70
73633;BME280;61927;50.080;14.418;2023-06-04T05:50:36;99825.47;;;12.31;46.01
73633;BME280;61927;50.080;14.418;2023-06-04T05:53:01;99836.38;;;12.40;45.51
73633;BME280;61927;50.080;14.418;2023-06-04T05:55:27;99827.25;;;12.44;45.17
73633;BME280;61927;50.080;14.418;2023-06-04T05:57:55;99826.84;;;12.50;45.27
73633;BME280;61927;50.080;14.418;2023-06-04T06:00:21;99827.50;;;12.54;44.99
73633;BME280;61927;50.080;14.418;2023-06-04T06:02:49;99828.72;;;12.63;45.15
73633;BME280;61927;50.080;14.418;2023-06-04T06:05:16;99832.16;;;12.65;45.07
73633;BME280;61927;50.080;14.418;2023-06-04T06:07:41;99841.56;;;12.70;44.98
73633;BME280;61927;50.080;14.418;2023-06-04T06:10:07;99831.56;;;12.74;45.31
73633;BME280;61927;50.080;14.418;2023-06-04T06:12:33;99835.63;;;12.79;45.40
73633;BME280;61927;50.080;14.418;2023-06-04T06:14:59;99837.03;;;12.85;45.11
73633;BME280;61927;50.080;14.418;2023-06-04T06:17:24;99839.97;;;12.94;45.68
73633;BME280;61927;50.080;14.418;2023-06-04T06:19:52;99838.81;;;12.99;45.66
73633;BME280;61927;50.080;14.418;2023-06-04T06:22:17;99842.13;;;13.02;45.66
73633;BME280;61927;50.080;14.418;2023-06-04T06:24:43;99845.53;;;13.18;45.87
73633;BME280;61927;50.080;14.418;2023-06-04T06:27:10;99840.03;;;13.34;44.80
73633;BME280;61927;50.080;14.418;2023-06-04T06:29:36;99843.34;;;13.38;45.17
73633;BME280;61927;50.080;14.418;2023-06-04T06:32:02;99841.66;;;13.49;44.53
73633;BME280;61927;50.080;14.418;2023-06-04T06:34:28;99843.16;;;13.53;44.41
73633;BME280;61927;50.080;14.418;2023-06-04T06:36:54;99845.81;;;13.53;44.73
73633;BME280;61927;50.080;14.418;2023-06-04T06:39:19;99844.75;;;13.56;44.93
73633;BME280;61927;50.080;14.418;2023-06-04T06:41:45;99846.69;;;13.67;44.36
73633;BME280;61927;50.080;14.418;2023-06-04T06:44:11;99850.66;;;13.74;44.23
73633;BME280;61927;50.080;14.418;2023-06-04T06:46:37;99853.44;;;13.85;43.33
73633;BME280;61927;50.080;14.418;2023-06-04T06:49:02;99855.25;;;13.97;42.42
73633;BME280;61927;50.080;14.418;2023-06-04T06:51:28;99855.59;;;14.05;42.21
73633;BME280;61927;50.080;14.418;2023-06-04T06:53:54;99856.75;;;14.14;42.17
73633;BME280;61927;50.080;14.418;2023-06-04T06:56:19;99859.97;;;14.19;42.29
73633;BME280;61927;50.080;14.418;2023-06-04T06:58:45;99851.50;;;14.25;41.54
73633;BME280;61927;50.080;14.418;2023-06-04T07:01:11;99855.69;;;14.29;41.43
73633;BME280;61927;50.080;14.418;2023-06-04T07:03:38;99859.50;;;14.38;41.11
73633;BME280;61927;50.080;14.418;2023-06-04T07:06:05;99860.81;;;14.45;40.94
73633;BME280;61927;50.080;14.418;2023-06-04T07:08:32;99864.44;;;14.57;40.79
73633;BME280;61927;50.080;14.418;2023-06-04T07:10:58;99860.47;;;14.62;40.66
73633;BME280;61927;50.080;14.418;2023-06-04T07:13:24;99864.91;;;14.74;40.03
73633;BME280;61927;50.080;14.418;2023-06-04T07:15:50;99861.69;;;14.82;39.67
73633;BME280;61927;50.080;14.418;2023-06-04T07:18:16;99862.00;;;14.90;39.76
73633;BME280;61927;50.080;14.418;2023-06-04T07:20:41;99861.19;;;15.01;39.43
73633;BME280;61927;50.080;14.418;2023-06-04T07:23:07;99863.41;;;15.07;39.43
73633;BME280;61927;50.080;14.418;2023-06-04T07:25:33;99865.97;;;15.08;39.33
73633;BME280;61927;50.080;14.418;2023-06-04T07:27:59;99858.59;;;15.12;39.15
73633;BME280;61927;50.080;14.418;2023-06-04T07:30:25;99862.63;;;15.17;39.24
73633;BME280;61927;50.080;14.418;2023-06-04T07:32:51;99864.50;;;15.28;39.34
73633;BME280;61927;50.080;14.418;2023-06-04T07:35:17;99858.00;;;15.43;39.13
73633;BME280;61927;50.080;14.418;2023-06-04T07:37:43;99855.84;;;15.48;38.85
73633;BME280;61927;50.080;14.418;2023-06-04T07:40:14;99864.38;;;15.54;38.53
73633;BME280;61927;50.080;14.418;2023-06-04T07:42:41;99856.34;;;15.54;38.57
73633;BME280;61927;50.080;14.418;2023-06-04T07:45:08;99850.03;;;15.55;38.92
73633;BME280;61927;50.080;14.418;2023-06-04T07:47:35;99856.75;;;15.60;38.74
73633;BME280;61927;50.080;14.418;2023-06-04T07:50:01;99856.06;;;15.69;38.63
73633;BME280;61927;50.080;14.418;2023-06-04T07:52:27;99852.69;;;15.78;38.79
73633;BME280;61927;50.080;14.418;2023-06-04T07:54:52;99850.25;;;15.87;38.39
73633;BME280;61927;50.080;14.418;2023-06-04T07:57:18;99851.13;;;15.98;38.26
73633;BME280;61927;50.080;14.418;2023-06-04T07:59:43;99847.25;;;16.13;38.21
73633;BME280;61927;50.080;14.418;2023-06-04T08:02:09;99839.72;;;16.30;37.47
73633;BME280;61927;50.080;14.418;2023-06-04T08:04:34;99839.00;;;16.39;37.52
73633;BME280;61927;50.080;14.418;2023-06-04T08:07:01;99845.19;;;16.51;37.63
73633;BME280;61927;50.080;14.418;2023-06-04T08:09:26;99843.72;;;16.58;36.94
73633;BME280;61927;50.080;14.418;2023-06-04T08:11:52;99846.28;;;16.59;36.97
73633;BME280;61927;50.080;14.418;2023-06-04T08:14:17;99847.66;;;16.65;37.03
73633;BME280;61927;50.080;14.418;2023-06-04T08:16:45;99848.97;;;16.70;37.19
73633;BME280;61927;50.080;14.418;2023-06-04T08:19:11;99843.34;;;16.85;36.59
73633;BME280;61927;50.080;14.418;2023-06-04T08:21:36;99838.31;;;17.02;36.27
73633;BME280;61927;50.080;14.418;2023-06-04T08:24:02;99838.41;;;17.12;36.26
73633;BME280;61927;50.080;14.418;2023-06-04T08:26:29;99844.47;;;17.25;35.72
73633;BME280;61927;50.080;14.418;2023-06-04T08:28:54;99834.66;;;17.35;35.43
73633;BME280;61927;50.080;14.418;2023-06-04T08:31:20;99837.81;;;17.40;35.75
73633;BME280;61927;50.080;14.418;2023-06-04T08:33:47;99837.16;;;17.48;35.20
73633;BME280;61927;50.080;14.418;2023-06-04T08:36:14;99836.38;;;17.57;35.15
73633;BME280;61927;50.080;14.418;2023-06-04T08:38:41;99841.09;;;17.65;34.24
73633;BME280;61927;50.080;14.418;2023-06-04T08:41:15;99832.31;;;17.74;33.88
73633;BME280;61927;50.080;14.418;2023-06-04T08:43:43;99836.88;;;17.83;33.25
73633;BME280;61927;50.080;14.418;2023-06-04T08:46:13;99842.06;;;17.96;33.21
73633;BME280;61927;50.080;14.418;2023-06-04T08:48:39;99837.84;;;18.03;32.59
73633;BME280;61927;50.080;14.418;2023-06-04T08:51:06;99832.81;;;18.10;32.76
73633;BME280;61927;50.080;14.418;2023-06-04T08:53:35;99834.25;;;18.14;33.37
73633;BME280;61927;50.080;14.418;2023-06-04T08:56:02;99834.41;;;18.22;31.76
73633;BME280;61927;50.080;14.418;2023-06-04T08:58:31;99839.66;;;18.23;31.75
73633;BME280;61927;50.080;14.418;2023-06-04T09:00:59;99845.03;;;18.23;31.68
73633;BME280;61927;50.080;14.418;2023-06-04T09:03:26;99835.41;;;18.21;32.07
73633;BME280;61927;50.080;14.418;2023-06-04T09:05:52;99835.41;;;18.21;32.43
73633;BME280;61927;50.080;14.418;2023-06-04T09:08:18;99843.06;;;18.25;32.43
73633;BME280;61927;50.080;14.418;2023-06-04T09:10:46;99838.41;;;18.27;31.81
73633;BME280;61927;50.080;14.418;2023-06-04T09:13:18;99841.81;;;18.29;31.18
73633;BME280;61927;50.080;14.418;2023-06-04T09:15:44;99839.97;;;18.30;30.96
73633;BME280;61927;50.080;14.418;2023-06-04T09:18:11;99838.72;;;18.34;30.46
73633;BME280;61927;50.080;14.418;2023-06-04T09:20:38;99845.66;;;18.36;29.33
73633;BME280;61927;50.080;14.418;2023-06-04T09:23:13;99838.63;;;18.45;30.23
73633;BME280;61927;50.080;14.418;2023-06-04T09:25:42;99835.53;;;18.50;30.47
73633;BME280;61927;50.080;14.418;2023-06-04T09:28:08;99841.56;;;18.63;30.87
73633;BME280;61927;50.080;14.418;2023-06-04T09:30:34;99832.97;;;18.79;30.14
73633;BME280;61927;50.080;14.418;2023-06-04T09:33:09;99841.75;;;18.81;30.17
73633;BME280;61927;50.080;14.418;2023-06-04T09:35:35;99837.94;;;18.83;29.85
73633;BME280;61927;50.080;14.418;2023-06-04T09:38:01;99835.50;;;18.80;29.85
73633;BME280;61927;50.080;14.418;2023-06-04T09:40:37;99837.78;;;18.85;29.83
73633;BME280;61927;50.080;14.418;2023-06-04T09:43:02;99837.78;;;18.85;29.89
73633;BME280;61927;50.080;14.418;2023-06-04T09:45:30;99840.47;;;18.85;30.55
73633;BME280;61927;50.080;14.418;2023-06-04T09:47:57;99831.28;;;18.87;30.44
73633;BME280;61927;50.080;14.418;2023-06-04T09:50:41;99834.72;;;18.99;30.54
73633;BME280;61927;50.080;14.418;2023-06-04T09:53:20;99834.03;;;19.16;29.96
73633;BME280;61927;50.080;14.418;2023-06-04T09:55:59;99836.00;;;19.33;30.54
73633;BME280;61927;50.080;14.418;2023-06-04T09:58:28;99829.22;;;19.39;29.88
73633;BME280;61927;50.080;14.418;2023-06-04T10:00:56;99824.69;;;19.40;29.96
73633;BME280;61927;50.080;14.418;2023-06-04T10:03:24;99834.88;;;19.36;29.53
73633;BME280;61927;50.080;14.418;2023-06-04T10:05:56;99826.66;;;19.38;29.17
73633;BME280;61927;50.080;14.418;2023-06-04T10:08:22;99827.22;;;19.31;29.33
73633;BME280;61927;50.080;14.418;2023-06-04T10:10:56;99827.22;;;19.31;29.03
73633;BME280;61927;50.080;14.418;2023-06-04T10:13:26;99822.41;;;19.35;28.86
73633;BME280;61927;50.080;14.418;2023-06-04T10:15:54;99823.56;;;19.42;28.33
73633;BME280;61927;50.080;14.418;2023-06-04T10:18:21;99830.06;;;19.40;28.76
73633;BME280;61927;50.080;14.418;2023-06-04T10:20:47;99824.81;;;19.38;29.45
73633;BME280;61927;50.080;14.418;2023-06-04T10:23:14;99825.81;;;19.37;29.40
73633;BME280;61927;50.080;14.418;2023-06-04T10:25:40;99815.75;;;19.39;29.86
73633;BME280;61927;50.080;14.418;2023-06-04T10:28:05;99810.38;;;19.39;29.59
73633;BME280;61927;50.080;14.418;2023-06-04T10:30:31;99812.34;;;19.47;29.18
73633;BME280;61927;50.080;14.418;2023-06-04T10:32:58;99803.75;;;19.53;28.94
73633;BME280;61927;50.080;14.418;2023-06-04T10:35:34;99804.59;;;19.63;28.74
73633;BME280;61927;50.080;14.418;2023-06-04T10:38:18;99803.00;;;19.70;29.01
73633;BME280;61927;50.080;14.418;2023-06-04T10:40:46;99810.22;;;19.79;28.94
73633;BME280;61927;50.080;14.418;2023-06-04T10:43:12;99802.13;;;19.89;27.76
73633;BME280;61927;50.080;14.418;2023-06-04T10:45:39;99807.34;;;20.00;28.10
73633;BME280;61927;50.080;14.418;2023-06-04T10:48:10;99807.91;;;20.04;27.84
73633;BME280;61927;50.080;14.418;2023-06-04T10:50:48;99802.91;;;20.09;28.60
73633;BME280;61927;50.080;14.418;2023-06-04T10:53:14;99803.63;;;20.11;28.04
73633;BME280;61927;50.080;14.418;2023-06-04T10:55:44;99805.63;;;20.09;28.36
73633;BME280;61927;50.080;14.418;2023-06-04T10:58:10;99796.53;;;20.10;27.33
73633;BME280;61927;50.080;14.418;2023-06-04T11:00:37;99800.63;;;20.14;27.00
73633;BME280;61927;50.080;14.418;2023-06-04T11:03:04;99796.75;;;20.26;27.37
73633;BME280;61927;50.080;14.418;2023-06-04T11:05:36;99803.53;;;20.40;27.47
73633;BME280;61927;50.080;14.418;2023-06-04T11:08:01;99796.16;;;20.42;27.03
73633;BME280;61927;50.080;14.418;2023-06-04T11:10:39;99796.72;;;20.36;27.74
73633;BME280;61927;50.080;14.418;2023-06-04T11:13:04;99797.16;;;20.41;27.03
73633;BME280;61927;50.080;14.418;2023-06-04T11:15:57;99795.69;;;20.46;26.66
73633;BME280;61927;50.080;14.418;2023-06-04T11:18:23;99795.84;;;20.45;26.71
73633;BME280;61927;50.080;14.418;2023-06-04T11:20:59;99786.81;;;20.63;27.33
73633;BME280;61927;50.080;14.418;2023-06-04T11:23:25;99791.31;;;20.73;26.50
73633;BME280;61927;50.080;14.418;2023-06-04T11:25:55;99791.69;;;20.78;25.75
73633;BME280;61927;50.080;14.418;2023-06-04T11:28:20;99799.09;;;20.76;25.91
73633;BME280;61927;50.080;14.418;2023-06-04T11:31:00;99796.34;;;20.58;26.05
73633;BME280;61927;50.080;14.418;2023-06-04T11:33:41;99790.81;;;20.59;26.60
73633;BME280;61927;50.080;14.418;2023-06-04T11:36:08;99792.84;;;20.75;26.62
73633;BME280;61927;50.080;14.418;2023-06-04T11:38:33;99787.78;;;20.90;26.51
73633;BME280;61927;50.080;14.418;2023-06-04T11:41:01;99789.16;;;20.94;26.08
73633;BME280;61927;50.080;14.418;2023-06-04T11:43:27;99786.94;;;20.89;26.24
73633;BME280;61927;50.080;14.418;2023-06-04T11:45:54;99787.69;;;20.82;26.71
73633;BME280;61927;50.080;14.418;2023-06-04T11:48:20;99781.94;;;20.94;26.58
73633;BME280;61927;50.080;14.418;2023-06-04T11:50:46;99779.31;;;21.03;26.26
73633;BME280;61927;50.080;14.418;2023-06-04T11:53:12;99778.84;;;21.07;26.28
73633;BME280;61927;50.080;14.418;2023-06-04T11:55:38;99770.69;;;21.17;26.56
73633;BME280;61927;50.080;14.418;2023-06-04T11:58:04;99764.69;;;21.23;26.29
73633;BME280;61927;50.080;14.418;2023-06-04T12:00:30;99769.31;;;21.31;25.74
73633;BME280;61927;50.080;14.418;2023-06-04T12:02:56;99771.31;;;21.28;25.91
73633;BME280;61927;50.080;14.418;2023-06-04T12:05:29;99772.88;;;21.31;25.60
73633;BME280;61927;50.080;14.418;2023-06-04T12:08:10;99767.44;;;21.49;25.46
73633;BME280;61927;50.080;14.418;2023-06-04T12:10:38;99766.59;;;21.48;25.10
73633;BME280;61927;50.080;14.418;2023-06-04T12:13:04;99767.22;;;21.42;25.34
73633;BME280;61927;50.080;14.418;2023-06-04T12:15:29;99758.81;;;21.45;24.98
73633;BME280;61927;50.080;14.418;2023-06-04T12:17:55;99762.50;;;21.44;24.96
73633;BME280;61927;50.080;14.418;2023-06-04T12:20:34;99756.66;;;21.49;25.08
73633;BME280;61927;50.080;14.418;2023-06-04T12:23:02;99764.13;;;21.55;24.74
73633;BME280;61927;50.080;14.418;2023-06-04T12:25:28;99754.47;;;21.52;24.76
73633;BME280;61927;50.080;14.418;2023-06-04T12:27:54;99756.38;;;21.60;25.04
73633;BME280;61927;50.080;14.418;2023-06-04T12:30:23;99754.13;;;21.73;24.91
73633;BME280;61927;50.080;14.418;2023-06-04T12:32:59;99743.69;;;21.78;25.30
73633;BME280;61927;50.080;14.418;2023-06-04T12:35:25;99740.34;;;21.84;25.27
73633;BME280;61927;50.080;14.418;2023-06-04T12:37:50;99746.28;;;21.88;25.22
73633;BME280;61927;50.080;14.418;2023-06-04T12:40:16;99747.28;;;21.87;25.57
73633;BME280;61927;50.080;14.418;2023-06-04T12:42:42;99755.88;;;21.82;25.06
73633;BME280;61927;50.080;14.418;2023-06-04T12:45:09;99757.66;;;22.00;25.57
73633;BME280;61927;50.080;14.418;2023-06-04T12:47:35;99751.13;;;22.02;24.81
73633;BME280;61927;50.080;14.418;2023-06-04T12:50:00;99740.59;;;21.99;24.96
73633;BME280;61927;50.080;14.418;2023-06-04T12:52:26;99738.22;;;21.96;25.18
73633;BME280;61927;50.080;14.418;2023-06-04T12:54:52;99746.06;;;22.07;24.39
73633;BME280;61927;50.080;14.418;2023-06-04T12:57:17;99745.28;;;22.15;24.11